createdAt,value
2019-05-16T00:01:00.051Z,53.40
2019-05-16T00:03:30.373Z,53.50
2019-05-16T00:06:00.644Z,53.60
2019-05-16T00:08:30.968Z,53.60
2019-05-16T00:11:01.334Z,53.70
2019-05-16T00:13:31.452Z,53.80
2019-05-16T00:16:01.844Z,53.80
2019-05-16T00:18:32.468Z,53.90
2019-05-16T00:21:02.627Z,54.00
2019-05-16T00:23:33.049Z,54.10
2019-05-16T00:26:03.277Z,54.30
2019-05-16T00:28:33.765Z,54.40
2019-05-16T00:31:03.986Z,54.40
2019-05-16T00:33:34.316Z,54.50
2019-05-16T00:36:05.984Z,54.60
2019-05-16T00:38:37.950Z,54.50
2019-05-16T00:41:08.684Z,54.60
2019-05-16T00:43:38.892Z,54.70
2019-05-16T00:46:09.211Z,54.70
2019-05-16T00:48:39.556Z,55.50
2019-05-16T00:51:10.096Z,54.80
2019-05-16T00:53:40.492Z,54.90
2019-05-16T00:56:11.052Z,55.00
2019-05-16T00:58:42.058Z,55.00
2019-05-16T01:01:12.529Z,55.00
2019-05-16T01:03:42.740Z,55.40
2019-05-16T01:06:18.605Z,55.20
2019-05-16T01:08:44.994Z,55.30
2019-05-16T01:11:15.255Z,55.40
2019-05-16T01:13:45.540Z,55.50
2019-05-16T01:16:15.865Z,55.40
2019-05-16T01:18:48.412Z,55.50
2019-05-16T01:21:18.574Z,55.50
2019-05-16T01:23:49.264Z,55.50
2019-05-16T01:26:19.266Z,55.50
2019-05-16T01:28:49.266Z,55.50
2019-05-16T01:31:19.450Z,55.50
2019-05-16T01:33:49.783Z,55.50
2019-05-16T01:36:33.317Z,56.30
2019-05-16T01:38:51.570Z,55.60
2019-05-16T01:41:21.644Z,55.60
2019-05-16T01:43:51.828Z,55.60
2019-05-16T01:46:21.804Z,55.70
2019-05-16T01:48:51.879Z,55.70
2019-05-16T01:51:22.194Z,55.70
2019-05-16T01:53:52.878Z,55.90
2019-05-16T01:56:22.820Z,55.90
2019-05-16T01:58:52.858Z,55.90
2019-05-16T02:01:22.909Z,56.00
2019-05-16T02:03:52.995Z,55.90
2019-05-16T02:06:23.267Z,56.00
2019-05-16T02:08:53.526Z,56.10
2019-05-16T02:11:23.649Z,56.10
2019-05-16T02:13:53.945Z,56.20
2019-05-16T02:16:24.259Z,56.20
2019-05-16T02:18:54.886Z,56.20
2019-05-16T02:21:25.158Z,56.30
2019-05-16T02:23:58.371Z,56.30
2019-05-16T02:26:28.354Z,56.20
2019-05-16T02:29:00.678Z,56.30
2019-05-16T02:31:31.425Z,56.30
2019-05-16T02:34:04.766Z,56.40
2019-05-16T02:36:33.849Z,56.40
2019-05-16T02:39:05.366Z,56.50
2019-05-16T02:41:35.733Z,56.40
2019-05-16T02:44:06.258Z,56.50
2019-05-16T02:46:36.573Z,56.50
2019-05-16T02:49:35.247Z,56.50
2019-05-16T02:52:05.662Z,56.60
2019-05-16T02:54:35.888Z,56.50
2019-05-16T02:57:06.147Z,56.60
2019-05-16T02:59:36.371Z,56.80
2019-05-16T03:02:06.878Z,57.00
2019-05-16T03:04:40.079Z,56.80
2019-05-16T03:07:13.514Z,56.90
2019-05-16T03:09:44.177Z,57.00
2019-05-16T03:12:14.910Z,57.10
2019-05-16T03:14:47.082Z,57.10
2019-05-16T03:17:21.740Z,57.10
2019-05-16T03:19:56.228Z,57.20
2019-05-16T03:22:31.574Z,57.90
2019-05-16T03:25:01.791Z,57.30
2019-05-16T03:27:32.060Z,58.00
2019-05-16T03:30:02.712Z,57.40
2019-05-16T03:32:34.393Z,57.50
2019-05-16T03:35:06.395Z,57.50
2019-05-16T03:37:51.375Z,57.50
2019-05-16T03:40:11.037Z,57.50
2019-05-16T03:42:41.597Z,57.50
2019-05-16T03:45:12.377Z,57.60
2019-05-16T03:47:43.129Z,57.50
2019-05-16T03:50:13.444Z,57.60
2019-05-16T03:52:44.037Z,57.70
2019-05-16T03:55:14.579Z,57.70
2019-05-16T03:57:44.611Z,57.70
2019-05-16T04:00:15.128Z,57.70
2019-05-16T04:02:45.847Z,57.90
2019-05-16T04:05:16.353Z,57.90
2019-05-16T04:07:46.673Z,58.00
2019-05-16T04:10:16.825Z,58.00
2019-05-16T04:12:46.853Z,58.10
2019-05-16T04:15:17.007Z,58.10
2019-05-16T04:17:47.291Z,58.20
2019-05-16T04:20:17.722Z,58.30
2019-05-16T04:22:47.676Z,58.30
2019-05-16T04:25:17.859Z,58.30
2019-05-16T04:27:50.169Z,58.30
2019-05-16T04:30:22.060Z,58.30
2019-05-16T04:32:52.418Z,58.30
2019-05-16T04:35:22.674Z,58.90
2019-05-16T04:37:52.771Z,58.30
2019-05-16T04:40:23.015Z,58.40
2019-05-16T04:42:53.240Z,58.40
2019-05-16T04:45:23.563Z,58.50
2019-05-16T04:47:53.955Z,58.40
2019-05-16T04:50:24.176Z,58.40
2019-05-16T04:52:54.503Z,58.40
2019-05-16T04:55:24.654Z,58.40
2019-05-16T04:57:54.837Z,58.30
2019-05-16T05:00:26.703Z,58.30
2019-05-16T05:02:57.032Z,58.30
2019-05-16T05:05:27.653Z,58.30
2019-05-16T05:08:01.297Z,58.30
2019-05-16T05:10:31.198Z,58.30
2019-05-16T05:13:01.917Z,58.50
2019-05-16T05:15:33.285Z,59.00
2019-05-16T05:18:03.564Z,58.40
2019-05-16T05:20:33.732Z,58.40
2019-05-16T05:23:03.851Z,58.30
2019-05-16T05:25:33.968Z,58.30
2019-05-16T05:28:04.190Z,58.40
2019-05-16T05:30:34.487Z,58.40
2019-05-16T05:33:05.256Z,58.40
2019-05-16T05:35:35.438Z,58.40
2019-05-16T05:38:05.761Z,58.40
2019-05-16T05:40:36.018Z,58.40
2019-05-16T05:43:06.508Z,58.30
2019-05-16T05:45:36.934Z,58.30
2019-05-16T05:48:07.259Z,58.40
2019-05-16T05:50:40.007Z,58.40
2019-05-16T05:53:10.174Z,58.30
2019-05-16T05:55:40.630Z,58.20
2019-05-16T05:58:11.032Z,58.20
2019-05-16T06:00:41.555Z,58.20
2019-05-16T06:03:11.902Z,58.20
2019-05-16T06:05:42.088Z,58.20
2019-05-16T06:08:12.208Z,58.20
2019-05-16T06:10:42.466Z,58.20
2019-05-16T06:13:12.408Z,58.40
2019-05-16T06:15:42.711Z,58.40
2019-05-16T06:18:13.110Z,58.40
2019-05-16T06:20:43.830Z,58.50
2019-05-16T06:23:14.089Z,58.50
2019-05-16T06:25:50.872Z,58.40
2019-05-16T06:28:21.431Z,58.20
2019-05-16T06:30:52.188Z,58.10
2019-05-16T06:33:22.654Z,58.00
2019-05-16T06:35:52.723Z,57.80
2019-05-16T06:38:22.770Z,57.70
2019-05-16T06:40:53.094Z,57.60
2019-05-16T06:43:22.997Z,57.70
2019-05-16T06:45:53.028Z,57.70
2019-05-16T06:48:23.065Z,57.90
2019-05-16T06:50:53.459Z,58.10
2019-05-16T06:53:23.613Z,58.20
2019-05-16T06:55:53.898Z,58.20
2019-05-16T06:58:24.022Z,58.10
2019-05-16T07:00:54.126Z,58.10
2019-05-16T07:03:24.561Z,57.90
2019-05-16T07:05:54.713Z,58.00
2019-05-16T07:08:24.946Z,57.80
2019-05-16T07:10:55.332Z,57.80
2019-05-16T07:13:25.581Z,57.70
2019-05-16T07:15:55.913Z,57.70
2019-05-16T07:18:26.234Z,57.70
2019-05-16T07:20:56.456Z,57.70
2019-05-16T07:23:26.789Z,57.60
2019-05-16T07:25:57.067Z,57.50
2019-05-16T07:28:27.224Z,57.40
2019-05-16T07:30:57.556Z,57.40
2019-05-16T07:33:28.084Z,57.50
2019-05-16T07:36:00.374Z,57.50
2019-05-16T07:38:31.201Z,57.40
2019-05-16T07:41:01.508Z,57.40
2019-05-16T07:43:32.148Z,57.50
2019-05-16T07:46:03.655Z,57.60
2019-05-16T07:48:33.812Z,57.80
2019-05-16T07:51:04.245Z,58.00
2019-05-16T07:53:34.322Z,58.20
2019-05-16T07:56:04.751Z,58.40
2019-05-16T07:58:35.029Z,58.30
2019-05-16T08:01:09.018Z,58.40
2019-05-16T08:03:38.075Z,58.30
2019-05-16T08:06:10.860Z,58.20
2019-05-16T08:08:40.527Z,58.10
2019-05-16T08:11:12.101Z,58.00
2019-05-16T08:13:42.753Z,57.80
2019-05-16T08:16:13.706Z,57.70
2019-05-16T08:18:45.224Z,57.80
2019-05-16T08:21:16.925Z,57.80
2019-05-16T08:23:50.079Z,57.90
2019-05-16T08:26:21.904Z,57.90
2019-05-16T08:28:51.953Z,58.00
2019-05-16T08:31:22.234Z,57.90
2019-05-16T08:36:24.888Z,58.00
2019-05-16T08:38:55.234Z,58.00
2019-05-16T08:41:25.531Z,57.90
2019-05-16T08:43:55.955Z,57.80
2019-05-16T08:46:31.920Z,57.70
2019-05-16T08:49:01.192Z,57.70
2019-05-16T08:51:33.353Z,57.70
2019-05-16T08:54:03.818Z,57.60
2019-05-16T08:56:34.161Z,57.60
2019-05-16T08:59:04.611Z,57.50
2019-05-16T09:01:35.304Z,57.30
2019-05-16T09:04:05.572Z,57.40
2019-05-16T09:06:36.131Z,57.30
2019-05-16T09:09:26.487Z,57.30
2019-05-16T09:10:38.905Z,58.00
2019-05-16T09:11:44.633Z,57.10
2019-05-16T09:14:12.308Z,56.80
2019-05-16T09:16:42.538Z,56.70
2019-05-16T09:19:12.659Z,56.70
2019-05-16T09:21:42.932Z,56.90
2019-05-16T09:24:13.964Z,56.90
2019-05-16T09:26:47.179Z,56.90
2019-05-16T09:29:16.872Z,56.80
2019-05-16T09:32:07.302Z,56.80
2019-05-16T09:34:19.310Z,56.90
2019-05-16T09:36:49.627Z,57.00
2019-05-16T09:39:19.999Z,57.10
2019-05-16T09:41:54.928Z,57.20
2019-05-16T09:44:22.124Z,57.30
2019-05-16T09:46:52.293Z,57.40
2019-05-16T09:49:24.855Z,57.70
2019-05-16T09:51:56.636Z,58.00
2019-05-16T09:54:27.315Z,58.20
2019-05-16T09:56:57.786Z,58.10
2019-05-16T09:59:28.040Z,58.10
2019-05-16T10:01:58.371Z,58.20
2019-05-16T10:04:28.583Z,57.90
2019-05-16T10:06:58.978Z,57.50
2019-05-16T10:09:41.287Z,57.90
2019-05-16T10:12:11.430Z,57.00
2019-05-16T10:14:33.572Z,56.70
2019-05-16T10:17:04.270Z,56.40
2019-05-16T10:19:36.810Z,56.10
2019-05-16T10:22:07.481Z,55.80
2019-05-16T10:24:37.740Z,55.70
2019-05-16T10:27:08.140Z,55.80
2019-05-16T10:29:38.383Z,55.70
2019-05-16T10:32:08.471Z,55.60
2019-05-16T10:34:38.898Z,55.60
2019-05-16T10:37:09.223Z,55.60
2019-05-16T10:39:39.380Z,55.80
2019-05-16T10:42:23.448Z,55.70
2019-05-16T10:44:41.863Z,55.60
2019-05-16T10:47:12.184Z,55.40
2019-05-16T10:49:42.414Z,55.30
2019-05-16T10:52:12.627Z,55.30
2019-05-16T10:54:55.337Z,55.10
2019-05-16T10:57:15.185Z,55.00
2019-05-16T10:59:58.619Z,55.20
2019-05-16T11:02:17.487Z,55.10
2019-05-16T11:05:00.210Z,54.90
2019-05-16T11:07:19.762Z,54.80
2019-05-16T11:09:57.948Z,54.60
2019-05-16T11:12:21.687Z,54.40
2019-05-16T11:14:51.775Z,54.50
2019-05-16T11:17:21.988Z,54.30
2019-05-16T11:19:52.087Z,54.20
2019-05-16T11:22:22.047Z,54.10
2019-05-16T11:24:52.067Z,54.00
2019-05-16T11:27:22.127Z,53.90
2019-05-16T11:29:52.338Z,53.90
2019-05-16T11:32:22.482Z,53.90
2019-05-16T11:34:52.786Z,53.80
2019-05-16T11:37:22.874Z,53.80
2019-05-16T11:39:54.308Z,53.80
2019-05-16T11:42:24.370Z,53.70
2019-05-16T11:44:54.433Z,53.60
2019-05-16T11:47:24.498Z,53.60
2019-05-16T11:49:56.935Z,53.30
2019-05-16T11:52:26.513Z,53.20
2019-05-16T11:54:57.163Z,53.00
2019-05-16T11:57:27.320Z,52.70
2019-05-16T11:59:57.573Z,52.80
2019-05-16T12:02:28.108Z,52.80
2019-05-16T12:04:58.296Z,53.00
2019-05-16T12:07:33.243Z,53.00
2019-05-16T12:09:59.960Z,52.80
2019-05-16T12:12:30.088Z,52.70
2019-05-16T12:15:01.438Z,52.70
2019-05-16T12:17:31.491Z,52.80
2019-05-16T12:20:01.926Z,52.80
2019-05-16T12:22:32.263Z,52.50
2019-05-16T12:25:02.296Z,52.40
2019-05-16T12:27:33.808Z,52.40
2019-05-16T12:30:12.947Z,52.30
2019-05-16T12:32:36.744Z,52.30
2019-05-16T12:35:08.095Z,52.10
2019-05-16T12:37:38.235Z,51.80
2019-05-16T12:40:09.779Z,52.10
2019-05-16T12:42:39.893Z,51.90
2019-05-16T12:45:10.643Z,51.90
2019-05-16T12:47:40.855Z,51.90
2019-05-16T12:50:12.726Z,51.70
2019-05-16T12:52:43.105Z,51.70
2019-05-16T12:55:16.430Z,51.50
2019-05-16T12:57:48.901Z,51.70
2019-05-16T13:00:20.453Z,51.60
2019-05-16T13:02:50.648Z,51.70
2019-05-16T13:05:22.948Z,51.50
2019-05-16T13:07:53.182Z,51.80
2019-05-16T13:10:23.424Z,51.90
2019-05-16T13:12:53.686Z,51.80
2019-05-16T13:15:24.150Z,51.70
2019-05-16T13:17:57.009Z,51.60
2019-05-16T13:20:26.837Z,51.90
2019-05-16T13:22:57.067Z,51.90
2019-05-16T13:25:27.455Z,51.90
2019-05-16T13:27:57.983Z,51.70
2019-05-16T13:30:28.418Z,51.30
2019-05-16T13:32:58.733Z,51.00
2019-05-16T13:35:29.146Z,50.20
2019-05-16T13:37:59.284Z,50.70
2019-05-16T13:40:29.614Z,50.90
2019-05-16T13:42:59.863Z,51.10
2019-05-16T13:45:30.561Z,51.20
2019-05-16T13:48:00.792Z,51.20
2019-05-16T13:50:31.560Z,51.20
2019-05-16T13:53:01.940Z,51.30
2019-05-16T13:55:32.212Z,51.40
2019-05-16T13:58:02.431Z,51.40
2019-05-16T14:00:33.164Z,51.30
2019-05-16T14:03:03.341Z,51.30
2019-05-16T14:05:33.599Z,51.40
2019-05-16T14:08:06.612Z,51.50
2019-05-16T14:10:37.498Z,51.40
2019-05-16T14:13:07.981Z,51.40
2019-05-16T14:15:38.025Z,51.30
2019-05-16T14:18:08.157Z,51.20
2019-05-16T14:20:38.232Z,51.10
2019-05-16T14:23:09.483Z,51.10
2019-05-16T14:25:39.654Z,51.00
2019-05-16T14:28:09.828Z,51.00
2019-05-16T14:30:39.962Z,51.20
2019-05-16T14:33:13.784Z,51.20
2019-05-16T14:35:41.853Z,51.10
2019-05-16T14:38:11.942Z,50.90
2019-05-16T14:40:42.085Z,51.00
2019-05-16T14:43:12.214Z,51.10
2019-05-16T14:45:42.267Z,51.10
2019-05-16T14:48:12.796Z,51.00
2019-05-16T14:50:42.893Z,50.90
2019-05-16T14:53:13.348Z,51.10
2019-05-16T14:55:43.529Z,51.20
2019-05-16T14:58:13.628Z,51.20
2019-05-16T15:00:44.246Z,51.00
2019-05-16T15:03:14.477Z,50.80
2019-05-16T15:05:44.657Z,50.80
2019-05-16T15:08:17.949Z,50.60
2019-05-16T15:10:47.107Z,50.60
2019-05-16T15:13:17.695Z,50.50
2019-05-16T15:15:48.036Z,50.60
2019-05-16T15:18:18.127Z,50.70
2019-05-16T15:20:48.080Z,50.70
2019-05-16T15:23:18.266Z,50.70
2019-05-16T15:25:48.312Z,50.60
2019-05-16T15:28:18.424Z,50.60
2019-05-16T15:30:48.740Z,50.70
2019-05-16T15:33:19.751Z,50.70
2019-05-16T15:35:49.885Z,50.70
2019-05-16T15:38:19.957Z,50.80
2019-05-16T15:40:49.959Z,50.80
2019-05-16T15:43:20.049Z,50.60
2019-05-16T15:45:53.126Z,50.60
2019-05-16T15:48:22.028Z,50.60
2019-05-16T15:50:52.420Z,50.70
2019-05-16T15:53:22.618Z,50.70
2019-05-16T15:55:53.753Z,50.90
2019-05-16T15:58:28.066Z,51.00
2019-05-16T16:01:59.732Z,50.90
2019-05-16T16:04:37.117Z,51.00
2019-05-16T16:11:01.637Z,50.90
2019-05-16T16:13:31.699Z,51.10
2019-05-16T16:16:10.197Z,51.00
2019-05-16T16:18:40.579Z,51.00
2019-05-16T16:21:10.700Z,50.90
2019-05-16T16:23:40.697Z,50.90
2019-05-16T16:26:10.814Z,50.80
2019-05-16T16:28:41.159Z,50.70
2019-05-16T16:31:11.280Z,50.70
2019-05-16T16:33:41.629Z,50.70
2019-05-16T16:36:11.688Z,50.70
2019-05-16T16:38:42.052Z,50.80
2019-05-16T16:41:12.310Z,50.80
2019-05-16T16:43:42.471Z,50.80
2019-05-16T16:46:13.743Z,50.70
2019-05-16T16:48:44.309Z,51.00
2019-05-16T16:51:17.394Z,51.00
2019-05-16T16:53:46.955Z,50.90
2019-05-16T16:56:17.463Z,50.70
2019-05-16T16:58:47.842Z,50.90
2019-05-16T17:01:18.085Z,51.10
2019-05-16T17:03:48.488Z,50.90
2019-05-16T17:06:18.914Z,50.80
2019-05-16T17:08:49.095Z,50.90
2019-05-16T17:11:19.243Z,51.00
2019-05-16T17:13:49.592Z,50.90
2019-05-16T17:16:25.848Z,50.80
2019-05-16T17:18:51.691Z,50.80
2019-05-16T17:21:21.892Z,50.80
2019-05-16T17:23:52.325Z,50.90
2019-05-16T17:26:22.624Z,50.80
2019-05-16T17:28:52.791Z,50.90
2019-05-16T17:31:22.885Z,51.10
2019-05-16T17:33:53.026Z,51.10
2019-05-16T17:36:23.178Z,51.10
2019-05-16T17:38:53.372Z,51.20
2019-05-16T17:41:23.330Z,51.30
2019-05-16T17:43:56.223Z,51.40
2019-05-16T17:46:34.783Z,51.40
2019-05-16T17:48:57.818Z,51.40
2019-05-16T17:51:28.175Z,51.40
2019-05-16T17:53:58.365Z,51.50
2019-05-16T17:56:28.673Z,51.50
2019-05-16T17:58:59.203Z,51.50
2019-05-16T18:01:29.426Z,51.50
2019-05-16T18:03:59.867Z,51.50
2019-05-16T18:06:30.178Z,51.40
2019-05-16T18:09:07.305Z,51.50
2019-05-16T18:11:37.738Z,51.50
2019-05-16T18:14:08.146Z,51.70
2019-05-16T18:17:08.731Z,51.80
2019-05-16T18:19:43.870Z,51.90
2019-05-16T18:22:47.132Z,51.90
2019-05-16T18:25:23.341Z,52.10
2019-05-16T18:27:59.285Z,52.20
2019-05-16T18:30:47.889Z,52.40
2019-05-16T18:34:57.691Z,52.40
2019-05-16T18:36:02.918Z,52.50
2019-05-16T18:39:06.590Z,52.50
2019-05-16T18:41:49.647Z,52.50
2019-05-16T18:44:28.742Z,52.40
2019-05-16T18:47:06.953Z,52.40
2019-05-16T18:49:57.918Z,52.40
2019-05-16T18:52:53.570Z,52.60
2019-05-16T18:57:17.530Z,52.60
2019-05-16T18:58:46.633Z,52.70
2019-05-16T19:03:27.527Z,53.00
2019-05-16T19:04:57.755Z,53.20
2019-05-16T19:08:32.270Z,53.20
2019-05-16T19:12:17.121Z,53.20
2019-05-16T19:15:28.375Z,53.40
2019-05-16T19:21:50.840Z,53.40
2019-05-16T19:24:46.763Z,53.50
2019-05-16T19:30:28.066Z,53.80
2019-05-16T19:36:28.719Z,53.80
2019-05-16T19:39:28.932Z,53.80
2019-05-16T19:42:39.904Z,53.80
2019-05-16T19:45:50.695Z,53.70
2019-05-16T19:48:29.061Z,53.70
2019-05-16T19:51:24.013Z,53.70
2019-05-16T19:54:40.308Z,53.80
2019-05-16T19:57:28.507Z,53.90
2019-05-16T20:00:16.999Z,53.90
2019-05-16T20:03:17.636Z,54.00
2019-05-16T20:06:17.236Z,54.20
2019-05-16T20:09:07.143Z,54.20
2019-05-16T20:11:56.902Z,54.30
2019-05-16T20:15:09.046Z,54.40
2019-05-16T20:17:51.998Z,54.30
2019-05-16T20:20:44.604Z,54.40
2019-05-16T20:24:01.985Z,54.40
2019-05-16T20:26:57.053Z,54.40
2019-05-16T20:29:28.735Z,54.50
2019-05-16T20:32:44.104Z,54.50
2019-05-16T20:35:57.280Z,54.50
2019-05-16T20:39:08.507Z,54.60
2019-05-16T20:42:29.798Z,54.60
2019-05-16T20:45:29.895Z,54.70
2019-05-16T20:51:40.543Z,54.70
2019-05-16T20:54:38.055Z,54.80
2019-05-16T21:00:06.966Z,54.90
2019-05-16T21:03:06.852Z,54.90
2019-05-16T21:05:47.850Z,55.00
2019-05-16T21:08:07.241Z,55.10
2019-05-16T21:10:37.771Z,55.20
2019-05-16T21:13:08.329Z,55.30
2019-05-16T21:15:38.869Z,55.40
2019-05-16T21:18:09.255Z,55.30
2019-05-16T21:20:39.580Z,55.20
2019-05-16T21:23:09.839Z,55.30
2019-05-16T21:25:40.161Z,55.20
2019-05-16T21:28:10.497Z,55.20
2019-05-16T21:30:40.913Z,55.30
2019-05-16T21:33:11.198Z,55.40
2019-05-16T21:35:41.625Z,55.50
2019-05-16T21:38:12.153Z,55.50
2019-05-16T21:40:42.728Z,55.70
2019-05-16T21:43:12.947Z,55.80
2019-05-16T21:45:43.167Z,56.00
2019-05-16T21:48:13.282Z,56.10
2019-05-16T21:50:43.298Z,56.10
2019-05-16T21:53:13.591Z,56.10
2019-05-16T21:55:47.060Z,56.30
2019-05-16T21:58:16.489Z,56.30
2019-05-16T22:00:52.341Z,56.50
2019-05-16T22:03:22.711Z,56.60
2019-05-16T22:05:53.229Z,56.70
2019-05-16T22:08:23.375Z,56.90
2019-05-16T22:10:53.596Z,57.00
2019-05-16T22:13:23.655Z,57.00
2019-05-16T22:15:53.878Z,57.10
2019-05-16T22:18:25.628Z,57.20
2019-05-16T22:20:56.973Z,57.30
2019-05-16T22:23:37.766Z,57.30
2019-05-16T22:26:07.658Z,57.50
2019-05-16T22:28:37.580Z,57.50
2019-05-16T22:31:07.883Z,57.60
2019-05-16T22:33:37.945Z,57.70
2019-05-16T22:36:08.241Z,57.80
2019-05-16T22:38:38.267Z,57.80
2019-05-16T22:41:10.750Z,57.90
2019-05-16T22:43:40.163Z,58.10
2019-05-16T22:46:10.566Z,58.30
2019-05-16T22:48:40.725Z,58.30
2019-05-16T22:51:10.951Z,58.30
2019-05-16T22:53:41.233Z,58.50
2019-05-16T22:56:11.492Z,58.70
2019-05-16T22:58:41.711Z,58.70
2019-05-16T23:01:12.246Z,59.40
2019-05-16T23:03:42.647Z,59.50
2019-05-16T23:06:12.894Z,59.00
2019-05-16T23:08:43.162Z,59.10
2019-05-16T23:11:13.330Z,59.20
2019-05-16T23:13:46.149Z,59.40
2019-05-16T23:16:17.182Z,59.50
2019-05-16T23:18:47.690Z,59.50
2019-05-16T23:21:18.003Z,59.60
2019-05-16T23:23:48.297Z,59.60
2019-05-16T23:26:18.518Z,59.60
2019-05-16T23:28:49.086Z,59.70
2019-05-16T23:31:19.268Z,59.80
2019-05-16T23:33:49.344Z,59.80
2019-05-16T23:36:19.374Z,59.90
2019-05-16T23:38:49.410Z,60.10
2019-05-16T23:41:19.342Z,60.10
2019-05-16T23:43:49.566Z,60.10
2019-05-16T23:46:19.866Z,60.30
2019-05-16T23:48:49.904Z,60.40
2019-05-16T23:51:20.114Z,60.50
2019-05-16T23:53:50.186Z,60.50
2019-05-16T23:56:20.207Z,60.60
2019-05-16T23:58:50.331Z,60.60
